createdAt,value
2019-02-23T00:02:02.854Z,15.67
2019-02-23T00:07:28.075Z,16.07
2019-02-23T00:12:52.468Z,15.93
2019-02-23T00:18:16.295Z,17.27
2019-02-23T00:23:40.185Z,15.13
2019-02-23T00:29:04.922Z,19.17
2019-02-23T00:34:29.641Z,20.03
2019-02-23T00:39:54.087Z,18.10
2019-02-23T00:45:18.544Z,16.53
2019-02-23T00:50:43.106Z,19.97
2019-02-23T00:56:06.675Z,16.30
2019-02-23T01:01:32.402Z,17.10
2019-02-23T01:06:56.283Z,22.43
2019-02-23T01:12:20.879Z,17.70
2019-02-23T01:17:44.807Z,18.87
2019-02-23T01:23:09.166Z,17.03
2019-02-23T01:28:33.819Z,19.63
2019-02-23T01:33:58.442Z,15.23
2019-02-23T01:39:23.433Z,17.93
2019-02-23T01:44:47.164Z,16.53
2019-02-23T01:50:12.230Z,19.30
2019-02-23T01:55:35.839Z,19.47
2019-02-23T02:01:00.550Z,17.73
2019-02-23T02:06:24.339Z,17.83
2019-02-23T02:11:49.045Z,18.23
2019-02-23T02:17:13.564Z,17.97
2019-02-23T02:22:38.273Z,20.83
2019-02-23T02:28:02.085Z,20.23
2019-02-23T02:33:26.736Z,19.63
2019-02-23T02:38:51.175Z,18.27
2019-02-23T02:44:16.303Z,19.10
2019-02-23T02:49:41.024Z,21.60
2019-02-23T02:55:06.128Z,16.87
2019-02-23T03:00:31.063Z,20.63
2019-02-23T03:05:55.055Z,20.57
2019-02-23T03:11:18.979Z,21.60
2019-02-23T03:16:43.669Z,20.07
2019-02-23T03:22:08.098Z,20.57
2019-02-23T03:27:32.051Z,20.03
2019-02-23T03:32:56.119Z,24.17
2019-02-23T03:38:19.977Z,18.23
2019-02-23T03:43:44.801Z,20.83
2019-02-23T03:49:09.646Z,26.33
2019-02-23T03:54:34.755Z,22.20
2019-02-23T03:59:59.994Z,24.07
2019-02-23T04:05:24.962Z,23.20
2019-02-23T04:10:49.470Z,25.80
2019-02-23T04:16:13.836Z,21.00
2019-02-23T04:21:38.850Z,20.80
2019-02-23T04:27:03.035Z,22.97
2019-02-23T04:32:27.756Z,26.77
2019-02-23T04:37:52.226Z,31.73
2019-02-23T04:43:17.260Z,27.53
2019-02-23T04:48:41.887Z,23.73
2019-02-23T04:54:05.757Z,28.33
2019-02-23T04:59:30.384Z,28.40
2019-02-23T05:04:54.809Z,23.33
2019-02-23T05:10:19.614Z,24.43
2019-02-23T05:15:44.493Z,23.93
2019-02-23T05:21:09.185Z,27.00
2019-02-23T05:26:33.212Z,28.50
2019-02-23T05:31:58.348Z,26.30
2019-02-23T05:37:22.211Z,24.10
2019-02-23T05:42:46.087Z,24.50
2019-02-23T05:48:10.866Z,32.47
2019-02-23T05:53:34.557Z,28.77
2019-02-23T05:58:59.016Z,27.13
2019-02-23T06:04:23.733Z,30.20
2019-02-23T06:09:48.456Z,32.13
2019-02-23T06:15:13.411Z,29.07
2019-02-23T06:20:37.682Z,26.00
2019-02-23T06:26:02.402Z,25.63
2019-02-23T06:31:26.678Z,27.93
2019-02-23T06:36:50.891Z,26.97
2019-02-23T06:42:15.878Z,24.53
2019-02-23T06:47:40.312Z,26.73
2019-02-23T06:53:04.810Z,31.17
2019-02-23T06:58:29.466Z,31.77
2019-02-23T07:03:53.363Z,32.20
2019-02-23T07:09:17.021Z,28.30
2019-02-23T07:14:41.662Z,29.60
2019-02-23T07:20:06.644Z,26.20
2019-02-23T07:25:30.995Z,30.57
2019-02-23T07:30:55.549Z,27.63
2019-02-23T07:36:20.763Z,32.13
2019-02-23T07:41:45.594Z,28.33
2019-02-23T07:47:09.541Z,30.53
2019-02-23T07:52:33.600Z,28.50
2019-02-23T07:57:58.385Z,28.90
2019-02-23T08:03:22.844Z,26.20
2019-02-23T08:08:47.680Z,24.63
2019-02-23T08:14:11.551Z,34.43
2019-02-23T08:19:35.806Z,27.83
2019-02-23T08:24:59.636Z,26.17
2019-02-23T08:30:23.461Z,31.67
2019-02-23T08:35:47.443Z,28.37
2019-02-23T08:41:11.771Z,25.73
2019-02-23T08:46:35.631Z,30.80
2019-02-23T08:51:59.895Z,24.70
2019-02-23T08:57:24.515Z,25.63
2019-02-23T09:02:48.943Z,23.67
2019-02-23T09:08:12.655Z,32.53
2019-02-23T09:13:36.691Z,18.60
2019-02-23T09:19:01.380Z,20.93
2019-02-23T09:24:26.011Z,19.33
2019-02-23T09:29:50.431Z,22.03
2019-02-23T09:35:15.090Z,25.43
2019-02-23T09:40:38.933Z,23.13
2019-02-23T09:46:03.030Z,22.97
2019-02-23T09:51:28.431Z,19.37
2019-02-23T09:56:53.889Z,23.77
2019-02-23T10:02:18.372Z,18.97
2019-02-23T10:07:43.080Z,23.57
2019-02-23T10:13:06.862Z,17.67
2019-02-23T10:18:52.997Z,20.23
2019-02-23T10:24:42.657Z,21.37
2019-02-23T10:30:10.860Z,19.60
2019-02-23T10:35:40.652Z,21.30
2019-02-23T10:41:07.896Z,19.67
2019-02-23T10:46:37.729Z,19.40
2019-02-23T10:52:28.071Z,20.03
2019-02-23T10:57:53.477Z,16.50
2019-02-23T11:03:18.005Z,17.97
2019-02-23T11:08:42.852Z,16.80
2019-02-23T11:14:07.739Z,18.13
2019-02-23T11:19:31.533Z,20.50
2019-02-23T11:24:56.085Z,18.83
2019-02-23T11:30:20.527Z,19.02
2019-02-23T11:35:45.687Z,19.63
2019-02-23T11:41:11.593Z,17.57
2019-02-23T11:46:36.092Z,17.00
2019-02-23T11:52:00.573Z,16.60
2019-02-23T11:57:25.141Z,19.53
2019-02-23T12:02:52.436Z,19.87
2019-02-23T12:08:15.154Z,17.70
2019-02-23T12:13:39.694Z,21.43
2019-02-23T12:19:03.638Z,18.30
2019-02-23T12:24:28.106Z,19.30
2019-02-23T12:29:52.824Z,22.27
2019-02-23T12:35:18.276Z,20.47
2019-02-23T12:40:42.794Z,18.40
2019-02-23T12:46:06.713Z,20.43
2019-02-23T12:51:30.936Z,21.17
2019-02-23T12:56:54.794Z,20.00
2019-02-23T13:02:19.534Z,19.00
2019-02-23T13:07:44.071Z,21.83
2019-02-23T13:13:37.454Z,20.07
2019-02-23T13:19:39.798Z,19.67
2019-02-23T13:25:35.075Z,16.30
2019-02-23T13:31:23.792Z,16.20
2019-02-23T13:37:23.488Z,15.03
2019-02-23T13:43:10.731Z,14.93
2019-02-23T13:49:09.144Z,18.37
2019-02-23T13:55:17.727Z,16.93
2019-02-23T14:01:17.979Z,16.00
2019-02-23T14:07:08.349Z,19.13
2019-02-23T14:12:41.709Z,15.87
2019-02-23T14:18:28.671Z,15.83
2019-02-23T14:24:10.413Z,14.47
2019-02-23T14:29:48.710Z,16.23
2019-02-23T14:35:46.218Z,15.33
2019-02-23T14:41:25.834Z,17.73
2019-02-23T14:47:25.680Z,14.47
2019-02-23T14:53:34.182Z,17.47
2019-02-23T14:59:13.484Z,18.83
2019-02-23T15:05:23.395Z,15.37
2019-02-23T15:11:10.420Z,21.57
2019-02-23T15:17:09.905Z,19.97
2019-02-23T15:22:52.313Z,18.53
2019-02-23T15:28:53.350Z,18.27
2019-02-23T15:34:55.483Z,23.43
2019-02-23T15:40:37.845Z,22.60
2019-02-23T15:46:32.386Z,21.63
2019-02-23T15:51:57.645Z,21.43
2019-02-23T16:02:58.014Z,20.30
2019-02-23T16:08:22.092Z,25.50
2019-02-23T16:13:46.622Z,20.83
2019-02-23T16:19:10.901Z,21.87
2019-02-23T16:24:35.650Z,24.13
2019-02-23T16:29:59.925Z,28.97
2019-02-23T16:35:24.869Z,24.63
2019-02-23T16:40:50.476Z,19.13
2019-02-23T16:46:15.178Z,20.00
2019-02-23T16:51:39.835Z,21.57
2019-02-23T16:57:04.951Z,22.00
2019-02-23T17:02:28.931Z,20.77
2019-02-23T17:07:52.919Z,30.37
2019-02-23T17:13:18.533Z,21.37
2019-02-23T17:18:43.756Z,18.60
2019-02-23T17:24:07.600Z,22.10
2019-02-23T17:29:31.289Z,21.53
2019-02-23T17:34:55.489Z,21.30
2019-02-23T17:40:19.636Z,21.53
2019-02-23T17:45:43.651Z,18.83
2019-02-23T17:51:08.402Z,20.20
2019-02-23T17:56:33.131Z,23.67
2019-02-23T18:01:56.947Z,25.13
2019-02-23T18:07:20.778Z,24.83
2019-02-23T18:12:45.455Z,26.77
2019-02-23T18:18:10.198Z,26.83
2019-02-23T18:23:33.811Z,25.30
2019-02-23T18:28:58.883Z,26.00
2019-02-23T18:34:23.383Z,27.63
2019-02-23T18:39:47.485Z,24.13
2019-02-23T18:45:13.179Z,27.50
2019-02-23T18:50:38.335Z,39.67
2019-02-23T18:56:03.997Z,27.07
2019-02-23T19:01:29.047Z,28.07
2019-02-23T19:06:53.594Z,32.37
2019-02-23T19:12:18.274Z,32.33
2019-02-23T19:17:42.007Z,37.40
2019-02-23T19:23:06.774Z,32.60
2019-02-23T19:28:31.139Z,36.43
2019-02-23T19:33:55.015Z,38.13
2019-02-23T19:39:18.987Z,34.40
2019-02-23T19:44:42.784Z,37.47
2019-02-23T19:50:10.794Z,38.63
2019-02-23T19:55:34.775Z,33.33
2019-02-23T20:00:59.103Z,38.90
2019-02-23T20:06:23.070Z,33.37
2019-02-23T20:11:48.161Z,30.57
2019-02-23T20:23:35.014Z,31.10
2019-02-23T20:28:58.766Z,38.67
2019-02-23T20:34:23.630Z,40.83
2019-02-23T20:39:48.197Z,29.37
2019-02-23T20:45:12.191Z,33.17
2019-02-23T20:50:37.139Z,36.93
2019-02-23T20:56:01.632Z,44.13
2019-02-23T21:01:26.143Z,45.87
2019-02-23T21:06:50.114Z,39.57
2019-02-23T21:12:14.820Z,39.67
2019-02-23T21:17:39.454Z,39.93
2019-02-23T21:23:04.319Z,34.30
2019-02-23T21:28:29.079Z,35.13
2019-02-23T21:33:53.935Z,41.10
2019-02-23T21:39:17.995Z,40.67
2019-02-23T21:44:41.749Z,44.47
2019-02-23T21:50:05.818Z,37.37
2019-02-23T21:55:29.568Z,44.57
2019-02-23T22:00:54.321Z,44.63
2019-02-23T22:06:19.553Z,37.57
2019-02-23T22:11:43.298Z,36.00
2019-02-23T22:17:08.234Z,53.63
2019-02-23T22:22:31.894Z,42.87
2019-02-23T22:27:55.632Z,38.23
2019-02-23T22:33:20.431Z,46.93
2019-02-23T22:38:45.357Z,39.93
2019-02-23T22:44:10.761Z,42.90
2019-02-23T22:49:35.291Z,44.60
2019-02-23T22:54:59.844Z,42.17
2019-02-23T23:00:28.244Z,43.27
2019-02-23T23:05:54.338Z,37.10
2019-02-23T23:11:19.840Z,47.00
2019-02-23T23:16:44.756Z,42.57
2019-02-23T23:22:09.328Z,45.50
2019-02-23T23:27:33.510Z,40.93
2019-02-23T23:32:57.127Z,38.33
2019-02-23T23:38:21.736Z,44.50
2019-02-23T23:43:45.785Z,44.70
2019-02-23T23:49:10.539Z,43.03
2019-02-23T23:54:34.603Z,40.07
2019-02-23T23:59:59.039Z,41.20
